Troviken — C6ZT9 — position and weather

sailwx.info

Track history (hours):
 
Tides and Currents Weather Stations Pressure Air Temp Water Temp Dewpoint Dewpoint Depression Visibility Wind Speed Wind Dir Waves Ship Positions

Troviken

Last reported at 2017-Jan-15 13:33 UTC. Time now 2017-Jan-18 22:18 UTC.
Position N 58°55' E 004°23'.

Length 250 m; draft 8.5 m.

Type: Tanker. MMSI: 311066200.

Date/timePositionNaut miles runAvg speedWind from/ knotsBaromVisibWave heightAir tempDewpointWater temp
2017-Jan-15 13:33N 58°55' E 004°23'9 8.7
2017-Jan-15 12:33N 58°48' E 004°33'9 9.2
2017-Jan-15 11:33N 58°42' E 004°46'9 9.1
2017-Jan-15 10:33N 58°36' E 004°59'9 9.5
2017-Jan-15 09:33N 58°29' E 005°11'9 9.5
2017-Jan-15 08:33N 58°22' E 005°24'10 9.5
2017-Jan-15 07:32N 58°15' E 005°37'9 9.4
2017-Jan-15 06:32N 58°09' E 005°50'10 9.7
2017-Jan-15 05:30N 58°03' E 006°05'10 9.7
2017-Jan-15 04:31N 57°56' E 006°19'9 9.4
2017-Jan-15 03:33N 57°50' E 006°32'9 9.2
2017-Jan-15 02:32N 57°47' E 006°48'1010.1
2017-Jan-15 01:32N 57°47' E 007°07'3610.7
2017-Jan-14 22:14N 57°52' E 008°13'811.2
2017-Jan-14 21:33N 57°55' E 008°26'69 9.8
2017-Jan-14 14:33N 57°54' E 010°35'10 9.9
2017-Jan-14 13:33N 57°53' E 010°54'1010.1
2017-Jan-14 12:33N 57°47' E 011°10'1110.7
2017-Jan-14 11:33N 57°40' E 011°24'8 7.8
2017-Jan-14 10:31N 57°34' E 011°35'0 0.1
2017-Jan-14 09:31N 57°34' E 011°35'0 0.0
2017-Jan-14 08:31N 57°34' E 011°35'0 0.0
2017-Jan-14 07:31N 57°34' E 011°35'0 0.0
2017-Jan-14 06:31N 57°34' E 011°35'0 0.0
2017-Jan-14 05:31N 57°34' E 011°35'0 0.0
2017-Jan-14 04:31N 57°34' E 011°35'0 0.0
2017-Jan-14 03:31N 57°34' E 011°35'0 0.0
2017-Jan-13 23:31N 57°34' E 011°35'0 0.0
2017-Jan-13 22:31N 57°34' E 011°35'0 0.0
2017-Jan-13 21:31N 57°34' E 011°35'0 0.0
2017-Jan-13 20:31N 57°34' E 011°35'0 0.0
2017-Jan-13 19:31N 57°34' E 011°35'0 0.0
2017-Jan-13 18:31N 57°34' E 011°35'0 0.0
2017-Jan-13 17:25N 57°34' E 011°35'0 0.0
2017-Jan-13 16:31N 57°34' E 011°35'0 0.0
2017-Jan-13 15:31N 57°34' E 011°35'0 0.0
2017-Jan-13 14:31N 57°34' E 011°35'0 0.0
2017-Jan-13 13:31N 57°34' E 011°35'0 0.0
2017-Jan-13 12:31N 57°34' E 011°35'0 0.0
2017-Jan-13 11:31N 57°34' E 011°35'0 0.0
2017-Jan-13 10:31N 57°34' E 011°35'0 0.0
2017-Jan-13 09:31N 57°34' E 011°35'0 0.0
2017-Jan-13 08:31N 57°34' E 011°35'0 0.0
2017-Jan-13 07:31N 57°34' E 011°35'0 0.0
2017-Jan-13 06:31N 57°34' E 011°35'0 0.0
2017-Jan-13 05:31N 57°34' E 011°35'0 0.0
2017-Jan-13 04:31N 57°34' E 011°35'0 0.0
2017-Jan-13 03:31N 57°34' E 011°35'0 0.0
2017-Jan-13 02:31N 57°34' E 011°35'0 0.0
2017-Jan-13 01:31N 57°34' E 011°35'0 0.0
2017-Jan-13 00:31N 57°34' E 011°35'0 0.0
2017-Jan-12 23:31N 57°34' E 011°35'0 0.0
2017-Jan-12 22:31N 57°34' E 011°35'0 0.0
2017-Jan-12 21:25N 57°34' E 011°35'0 0.0
2017-Jan-12 20:31N 57°34' E 011°35'0 0.0
2017-Jan-12 19:28N 57°34' E 011°35'1 0.6
2017-Jan-12 18:33N 57°34' E 011°36'3 2.7
2017-Jan-12 17:33N 57°31' E 011°33'2 1.6
2017-Jan-12 16:34N 57°30' E 011°31'0 0.4
2017-Jan-12 15:33N 57°30' E 011°32'3 2.6
2017-Jan-12 14:33N 57°30' E 011°37'2 2.0
2017-Jan-12 13:33N 57°30' E 011°33'2 2.0
2017-Jan-12 12:33N 57°29' E 011°29'2 2.2
2017-Jan-12 11:33N 57°30' E 011°33'2 2.3
2017-Jan-12 10:33N 57°32' E 011°36'2 1.6
2017-Jan-12 09:33N 57°31' E 011°34'2 1.9
2017-Jan-12 08:33N 57°30' E 011°31'1 1.3
2017-Jan-12 07:33N 57°30' E 011°33'2 1.7
2017-Jan-12 06:33N 57°30' E 011°36'1 0.6
2017-Jan-12 05:33N 57°30' E 011°36'2 2.2
2017-Jan-12 04:33N 57°30' E 011°32'0 0.4
2017-Jan-12 03:33N 57°30' E 011°32'3 3.2
2017-Jan-12 02:33N 57°30' E 011°38'2 2.1
2017-Jan-12 01:33N 57°30' E 011°34'2 2.4
2017-Jan-12 00:33N 57°29' E 011°30'3 2.6
2017-Jan-11 23:33N 57°30' E 011°35'2 1.8
2017-Jan-11 22:33N 57°29' E 011°38'1 1.1
2017-Jan-11 21:33N 57°30' E 011°38'1 0.7
2017-Jan-11 20:33N 57°30' E 011°36'2 2.0
2017-Jan-11 19:33N 57°31' E 011°33'1 1.2
2017-Jan-11 18:33N 57°32' E 011°34'2 1.8
2017-Jan-11 17:33N 57°30' E 011°32'1 1.0
2017-Jan-11 16:33N 57°29' E 011°32'1 1.0
2017-Jan-11 15:33N 57°30' E 011°32'0 0.5
2017-Jan-11 14:33N 57°30' E 011°32'1 0.8
2017-Jan-11 13:33N 57°31' E 011°31'1 1.1
2017-Jan-11 12:33N 57°32' E 011°32'1 1.1
2017-Jan-11 11:33N 57°33' E 011°32'1 1.0
2017-Jan-11 10:33N 57°34' E 011°32'1 0.8
2017-Jan-11 09:34N 57°34' E 011°30'2 2.0
2017-Jan-11 08:33N 57°34' E 011°34'1 0.8
2017-Jan-11 07:33N 57°35' E 011°35'0 0.4
2017-Jan-11 06:32N 57°34' E 011°35'0 0.1
2017-Jan-11 05:33N 57°34' E 011°35'0 0.0
2017-Jan-11 04:33N 57°34' E 011°35'0 0.0
2017-Jan-11 03:33N 57°34' E 011°35'0 0.0
2017-Jan-11 02:33N 57°34' E 011°35'0 0.0
2017-Jan-11 01:33N 57°34' E 011°35'0 0.0
2017-Jan-11 00:33N 57°34' E 011°35'0 0.0
2017-Jan-10 23:33N 57°34' E 011°35'0 0.0
2017-Jan-10 22:33N 57°34' E 011°35'0 0.0
2017-Jan-10 21:33N 57°34' E 011°35'0 0.0
2017-Jan-10 20:33N 57°34' E 011°35'0 0.1
2017-Jan-10 19:33N 57°34' E 011°35'0 0.1
2017-Jan-10 18:30N 57°34' E 011°35'0 0.0
2017-Jan-10 17:33N 57°34' E 011°35'0 0.0
2017-Jan-10 16:33N 57°34' E 011°35'0 0.0
2017-Jan-10 15:33N 57°34' E 011°35'0 0.0
2017-Jan-10 14:33N 57°34' E 011°35'0 0.1
2017-Jan-10 13:33N 57°34' E 011°35'0 0.1
2017-Jan-10 12:32N 57°34' E 011°35'0 0.1
2017-Jan-10 11:30N 57°34' E 011°35'0 0.1
2017-Jan-10 10:33N 57°34' E 011°35'0 0.1
2017-Jan-10 09:32N 57°34' E 011°35'0 0.0
2017-Jan-10 08:33N 57°34' E 011°35'0 0.0
2017-Jan-10 07:32N 57°34' E 011°35'0 0.0
2017-Jan-10 06:32N 57°34' E 011°35'0 0.1
2017-Jan-10 05:33N 57°34' E 011°35'0 0.0
2017-Jan-10 04:32N 57°34' E 011°35'0 0.0
2017-Jan-10 03:33N 57°34' E 011°35'0 0.0
2017-Jan-10 02:33N 57°34' E 011°35'0 0.1
2017-Jan-10 01:32N 57°34' E 011°35'0 0.0
2017-Jan-10 00:33N 57°34' E 011°35'0 0.0
2017-Jan-09 23:32N 57°34' E 011°35'0 0.1
2017-Jan-09 22:33N 57°34' E 011°35'0 0.1
2017-Jan-09 21:33N 57°34' E 011°35'0 0.0
2017-Jan-09 20:33N 57°34' E 011°35'0 0.0
2017-Jan-09 19:33N 57°34' E 011°35'0 0.0
2017-Jan-09 18:33N 57°34' E 011°35'0 0.0
2017-Jan-09 17:32N 57°34' E 011°35'0 0.0
2017-Jan-09 16:33N 57°34' E 011°35'0 0.0
2017-Jan-09 15:33N 57°34' E 011°35'0 0.0
2017-Jan-09 14:32N 57°34' E 011°35'0 0.0
2017-Jan-09 13:32N 57°34' E 011°35'0 0.0
2017-Jan-09 12:30N 57°34' E 011°35'0 0.0
2017-Jan-09 11:30N 57°34' E 011°35'0 0.0
2017-Jan-09 10:33N 57°34' E 011°35'0 0.0
2017-Jan-09 09:32N 57°34' E 011°35'0 0.0
2017-Jan-09 08:33N 57°34' E 011°35'0 0.0
2017-Jan-09 07:32N 57°34' E 011°35'0 0.0
2017-Jan-09 06:33N 57°34' E 011°35'0 0.0
2017-Jan-09 05:33N 57°34' E 011°35'0 0.0
2017-Jan-09 04:33N 57°34' E 011°35'0 0.0
2017-Jan-09 03:33N 57°34' E 011°35'0 0.0
2017-Jan-09 02:33N 57°34' E 011°35'0 0.0
2017-Jan-09 01:33N 57°34' E 011°35'0 0.0
2017-Jan-09 00:33N 57°34' E 011°35'0 0.0
2017-Jan-08 23:33N 57°34' E 011°35'0 0.0
2017-Jan-08 22:33N 57°34' E 011°35'0 0.0
2017-Jan-08 21:33N 57°34' E 011°35'0 0.0
2017-Jan-08 20:32N 57°34' E 011°35'0 0.0
2017-Jan-08 19:33N 57°34' E 011°35'0 0.0
2017-Jan-08 18:33N 57°34' E 011°35'0 0.0
2017-Jan-08 17:33N 57°34' E 011°35'0 0.0
2017-Jan-08 16:33N 57°34' E 011°35'0 0.0
2017-Jan-08 15:33N 57°34' E 011°35'0 0.0
2017-Jan-08 14:33N 57°34' E 011°35'0 0.0
2017-Jan-08 13:33N 57°34' E 011°35'0 0.0
2017-Jan-08 12:33N 57°34' E 011°35'0 0.0
2017-Jan-08 11:27N 57°34' E 011°35'0 0.0
2017-Jan-08 10:33N 57°34' E 011°35'0 0.0
2017-Jan-08 09:33N 57°34' E 011°35'0 0.1
2017-Jan-08 08:33N 57°34' E 011°35'0 0.0
2017-Jan-08 07:33N 57°34' E 011°35'0 0.0
2017-Jan-08 06:33N 57°34' E 011°35'0 0.0
2017-Jan-08 05:33N 57°34' E 011°35'0 0.1
2017-Jan-08 04:33N 57°34' E 011°35'0 0.1
2017-Jan-08 03:33N 57°33' E 011°35'0 0.0
2017-Jan-08 02:32N 57°33' E 011°35'0 0.0
2017-Jan-08 01:33N 57°33' E 011°35'0 0.0
2017-Jan-08 00:33N 57°33' E 011°35'0 0.0
2017-Jan-07 23:32N 57°34' E 011°35'0 0.0
2017-Jan-07 22:33N 57°34' E 011°35'0 0.1
2017-Jan-07 21:32N 57°34' E 011°35'0 0.0
2017-Jan-07 20:33N 57°34' E 011°35'0 0.1
2017-Jan-07 19:33N 57°34' E 011°35'0 0.1
2017-Jan-07 18:32N 57°34' E 011°35'0 0.0
2017-Jan-07 17:32N 57°34' E 011°35'3 3.3
2017-Jan-07 16:33N 57°36' E 011°39'7 6.6
2017-Jan-07 15:33N 57°41' E 011°47'0 0.1
2017-Jan-07 14:31N 57°41' E 011°47'0 0.0
2017-Jan-07 13:31N 57°41' E 011°47'0 0.0
2017-Jan-07 12:31N 57°41' E 011°47'0 0.0
2017-Jan-07 11:32N 57°41' E 011°47'0 0.0
2017-Jan-07 10:31N 57°41' E 011°47'0 0.0
2017-Jan-07 09:31N 57°41' E 011°47'0 0.0
2017-Jan-07 08:31N 57°41' E 011°47'0 0.0
2017-Jan-07 07:31N 57°41' E 011°47'0 0.0
2017-Jan-07 06:31N 57°41' E 011°47'0 0.0
2017-Jan-07 05:32N 57°41' E 011°47'0 0.0
2017-Jan-07 04:32N 57°41' E 011°47'0 0.0
2017-Jan-07 03:31N 57°41' E 011°47'0 0.0
2017-Jan-07 02:28N 57°41' E 011°47'0 0.0
2017-Jan-07 01:31N 57°41' E 011°47'0 0.0
2017-Jan-07 00:31N 57°41' E 011°47'0 0.0
2017-Jan-06 23:31N 57°41' E 011°47'0 0.0
2017-Jan-06 22:31N 57°41' E 011°47'0 0.0
2017-Jan-06 21:31N 57°41' E 011°47'0 0.0
2017-Jan-06 20:31N 57°41' E 011°47'0 0.0
2017-Jan-06 19:32N 57°41' E 011°47'0 0.0
2017-Jan-06 18:32N 57°41' E 011°47'0 0.0
2017-Jan-06 17:32N 57°41' E 011°47'0 0.0
2017-Jan-06 16:31N 57°41' E 011°47'0 0.0
2017-Jan-06 15:31N 57°41' E 011°47'0 0.0
2017-Jan-06 14:31N 57°41' E 011°47'0 0.0
2017-Jan-06 13:31N 57°41' E 011°47'0 0.0
2017-Jan-06 12:31N 57°41' E 011°47'0 0.0
2017-Jan-06 11:32N 57°41' E 011°47'0 0.0
2017-Jan-06 10:31N 57°41' E 011°47'0 0.0
2017-Jan-06 09:31N 57°41' E 011°47'0 0.2
2017-Jan-06 08:33N 57°41' E 011°47'5 4.8
2017-Jan-06 07:33N 57°37' E 011°41'8 8.1
2017-Jan-06 06:33N 57°40' E 011°26'5 4.6
2017-Jan-06 05:33N 57°43' E 011°20'4 3.7
2017-Jan-06 04:33N 57°45' E 011°15'1010.5
2017-Jan-06 03:33N 57°50' E 010°58'1313.3
2017-Jan-06 02:33N 57°55' E 010°34'  
Track history (hours):
 
Tides and Currents Weather Stations Pressure Air Temp Water Temp Dewpoint Dewpoint Depression Visibility Wind Speed Wind Dir Waves Ship Positions

Troviken

Last reported at 2017-Jan-15 13:33 UTC. Time now 2017-Jan-18 22:18 UTC.
Position N 58°55' E 004°23'.

Length 250 m; draft 8.5 m.

Type: Tanker. MMSI: 311066200.

Date/timePositionNaut miles runAvg speedWind from/ knotsBaromVisibWave heightAir tempDewpointWater temp
2017-Jan-15 13:33N 58°55' E 004°23'9 8.7
2017-Jan-15 12:33N 58°48' E 004°33'9 9.2
2017-Jan-15 11:33N 58°42' E 004°46'9 9.1
2017-Jan-15 10:33N 58°36' E 004°59'9 9.5
2017-Jan-15 09:33N 58°29' E 005°11'9 9.5
2017-Jan-15 08:33N 58°22' E 005°24'10 9.5
2017-Jan-15 07:32N 58°15' E 005°37'9 9.4
2017-Jan-15 06:32N 58°09' E 005°50'10 9.7
2017-Jan-15 05:30N 58°03' E 006°05'10 9.7
2017-Jan-15 04:31N 57°56' E 006°19'9 9.4
2017-Jan-15 03:33N 57°50' E 006°32'9 9.2
2017-Jan-15 02:32N 57°47' E 006°48'1010.1
2017-Jan-15 01:32N 57°47' E 007°07'3610.7
2017-Jan-14 22:14N 57°52' E 008°13'811.2
2017-Jan-14 21:33N 57°55' E 008°26'69 9.8
2017-Jan-14 14:33N 57°54' E 010°35'10 9.9
2017-Jan-14 13:33N 57°53' E 010°54'1010.1
2017-Jan-14 12:33N 57°47' E 011°10'1110.7
2017-Jan-14 11:33N 57°40' E 011°24'8 7.8
2017-Jan-14 10:31N 57°34' E 011°35'0 0.1
2017-Jan-14 09:31N 57°34' E 011°35'0 0.0
2017-Jan-14 08:31N 57°34' E 011°35'0 0.0
2017-Jan-14 07:31N 57°34' E 011°35'0 0.0
2017-Jan-14 06:31N 57°34' E 011°35'0 0.0
2017-Jan-14 05:31N 57°34' E 011°35'0 0.0
2017-Jan-14 04:31N 57°34' E 011°35'0 0.0
2017-Jan-14 03:31N 57°34' E 011°35'0 0.0
2017-Jan-13 23:31N 57°34' E 011°35'0 0.0
2017-Jan-13 22:31N 57°34' E 011°35'0 0.0
2017-Jan-13 21:31N 57°34' E 011°35'0 0.0
2017-Jan-13 20:31N 57°34' E 011°35'0 0.0
2017-Jan-13 19:31N 57°34' E 011°35'0 0.0
2017-Jan-13 18:31N 57°34' E 011°35'0 0.0
2017-Jan-13 17:25N 57°34' E 011°35'0 0.0
2017-Jan-13 16:31N 57°34' E 011°35'0 0.0
2017-Jan-13 15:31N 57°34' E 011°35'0 0.0
2017-Jan-13 14:31N 57°34' E 011°35'0 0.0
2017-Jan-13 13:31N 57°34' E 011°35'0 0.0
2017-Jan-13 12:31N 57°34' E 011°35'0 0.0
2017-Jan-13 11:31N 57°34' E 011°35'0 0.0
2017-Jan-13 10:31N 57°34' E 011°35'0 0.0
2017-Jan-13 09:31N 57°34' E 011°35'0 0.0
2017-Jan-13 08:31N 57°34' E 011°35'0 0.0
2017-Jan-13 07:31N 57°34' E 011°35'0 0.0
2017-Jan-13 06:31N 57°34' E 011°35'0 0.0
2017-Jan-13 05:31N 57°34' E 011°35'0 0.0
2017-Jan-13 04:31N 57°34' E 011°35'0 0.0
2017-Jan-13 03:31N 57°34' E 011°35'0 0.0
2017-Jan-13 02:31N 57°34' E 011°35'0 0.0
2017-Jan-13 01:31N 57°34' E 011°35'0 0.0
2017-Jan-13 00:31N 57°34' E 011°35'0 0.0
2017-Jan-12 23:31N 57°34' E 011°35'0 0.0
2017-Jan-12 22:31N 57°34' E 011°35'0 0.0
2017-Jan-12 21:25N 57°34' E 011°35'0 0.0
2017-Jan-12 20:31N 57°34' E 011°35'0 0.0
2017-Jan-12 19:28N 57°34' E 011°35'1 0.6
2017-Jan-12 18:33N 57°34' E 011°36'3 2.7
2017-Jan-12 17:33N 57°31' E 011°33'2 1.6
2017-Jan-12 16:34N 57°30' E 011°31'0 0.4
2017-Jan-12 15:33N 57°30' E 011°32'3 2.6
2017-Jan-12 14:33N 57°30' E 011°37'2 2.0
2017-Jan-12 13:33N 57°30' E 011°33'2 2.0
2017-Jan-12 12:33N 57°29' E 011°29'2 2.2
2017-Jan-12 11:33N 57°30' E 011°33'2 2.3
2017-Jan-12 10:33N 57°32' E 011°36'2 1.6
2017-Jan-12 09:33N 57°31' E 011°34'2 1.9
2017-Jan-12 08:33N 57°30' E 011°31'1 1.3
2017-Jan-12 07:33N 57°30' E 011°33'2 1.7
2017-Jan-12 06:33N 57°30' E 011°36'1 0.6
2017-Jan-12 05:33N 57°30' E 011°36'2 2.2
2017-Jan-12 04:33N 57°30' E 011°32'0 0.4
2017-Jan-12 03:33N 57°30' E 011°32'3 3.2
2017-Jan-12 02:33N 57°30' E 011°38'2 2.1
2017-Jan-12 01:33N 57°30' E 011°34'2 2.4
2017-Jan-12 00:33N 57°29' E 011°30'3 2.6
2017-Jan-11 23:33N 57°30' E 011°35'2 1.8
2017-Jan-11 22:33N 57°29' E 011°38'1 1.1
2017-Jan-11 21:33N 57°30' E 011°38'1 0.7
2017-Jan-11 20:33N 57°30' E 011°36'2 2.0
2017-Jan-11 19:33N 57°31' E 011°33'1 1.2
2017-Jan-11 18:33N 57°32' E 011°34'2 1.8
2017-Jan-11 17:33N 57°30' E 011°32'1 1.0
2017-Jan-11 16:33N 57°29' E 011°32'1 1.0
2017-Jan-11 15:33N 57°30' E 011°32'0 0.5
2017-Jan-11 14:33N 57°30' E 011°32'1 0.8
2017-Jan-11 13:33N 57°31' E 011°31'1 1.1
2017-Jan-11 12:33N 57°32' E 011°32'1 1.1
2017-Jan-11 11:33N 57°33' E 011°32'1 1.0
2017-Jan-11 10:33N 57°34' E 011°32'1 0.8
2017-Jan-11 09:34N 57°34' E 011°30'2 2.0
2017-Jan-11 08:33N 57°34' E 011°34'1 0.8
2017-Jan-11 07:33N 57°35' E 011°35'0 0.4
2017-Jan-11 06:32N 57°34' E 011°35'0 0.1
2017-Jan-11 05:33N 57°34' E 011°35'0 0.0
2017-Jan-11 04:33N 57°34' E 011°35'0 0.0
2017-Jan-11 03:33N 57°34' E 011°35'0 0.0
2017-Jan-11 02:33N 57°34' E 011°35'0 0.0
2017-Jan-11 01:33N 57°34' E 011°35'0 0.0
2017-Jan-11 00:33N 57°34' E 011°35'0 0.0
2017-Jan-10 23:33N 57°34' E 011°35'0 0.0
2017-Jan-10 22:33N 57°34' E 011°35'0 0.0
2017-Jan-10 21:33N 57°34' E 011°35'0 0.0
2017-Jan-10 20:33N 57°34' E 011°35'0 0.1
2017-Jan-10 19:33N 57°34' E 011°35'0 0.1
2017-Jan-10 18:30N 57°34' E 011°35'0 0.0
2017-Jan-10 17:33N 57°34' E 011°35'0 0.0
2017-Jan-10 16:33N 57°34' E 011°35'0 0.0
2017-Jan-10 15:33N 57°34' E 011°35'0 0.0
2017-Jan-10 14:33N 57°34' E 011°35'0 0.1
2017-Jan-10 13:33N 57°34' E 011°35'0 0.1
2017-Jan-10 12:32N 57°34' E 011°35'0 0.1
2017-Jan-10 11:30N 57°34' E 011°35'0 0.1
2017-Jan-10 10:33N 57°34' E 011°35'0 0.1
2017-Jan-10 09:32N 57°34' E 011°35'0 0.0
2017-Jan-10 08:33N 57°34' E 011°35'0 0.0
2017-Jan-10 07:32N 57°34' E 011°35'0 0.0
2017-Jan-10 06:32N 57°34' E 011°35'0 0.1
2017-Jan-10 05:33N 57°34' E 011°35'0 0.0
2017-Jan-10 04:32N 57°34' E 011°35'0 0.0
2017-Jan-10 03:33N 57°34' E 011°35'0 0.0
2017-Jan-10 02:33N 57°34' E 011°35'0 0.1
2017-Jan-10 01:32N 57°34' E 011°35'0 0.0
2017-Jan-10 00:33N 57°34' E 011°35'0 0.0
2017-Jan-09 23:32N 57°34' E 011°35'0 0.1
2017-Jan-09 22:33N 57°34' E 011°35'0 0.1
2017-Jan-09 21:33N 57°34' E 011°35'0 0.0
2017-Jan-09 20:33N 57°34' E 011°35'0 0.0
2017-Jan-09 19:33N 57°34' E 011°35'0 0.0
2017-Jan-09 18:33N 57°34' E 011°35'0 0.0
2017-Jan-09 17:32N 57°34' E 011°35'0 0.0
2017-Jan-09 16:33N 57°34' E 011°35'0 0.0
2017-Jan-09 15:33N 57°34' E 011°35'0 0.0
2017-Jan-09 14:32N 57°34' E 011°35'0 0.0
2017-Jan-09 13:32N 57°34' E 011°35'0 0.0
2017-Jan-09 12:30N 57°34' E 011°35'0 0.0
2017-Jan-09 11:30N 57°34' E 011°35'0 0.0
2017-Jan-09 10:33N 57°34' E 011°35'0 0.0
2017-Jan-09 09:32N 57°34' E 011°35'0 0.0
2017-Jan-09 08:33N 57°34' E 011°35'0 0.0
2017-Jan-09 07:32N 57°34' E 011°35'0 0.0
2017-Jan-09 06:33N 57°34' E 011°35'0 0.0
2017-Jan-09 05:33N 57°34' E 011°35'0 0.0
2017-Jan-09 04:33N 57°34' E 011°35'0 0.0
2017-Jan-09 03:33N 57°34' E 011°35'0 0.0
2017-Jan-09 02:33N 57°34' E 011°35'0 0.0
2017-Jan-09 01:33N 57°34' E 011°35'0 0.0
2017-Jan-09 00:33N 57°34' E 011°35'0 0.0
2017-Jan-08 23:33N 57°34' E 011°35'0 0.0
2017-Jan-08 22:33N 57°34' E 011°35'0 0.0
2017-Jan-08 21:33N 57°34' E 011°35'0 0.0
2017-Jan-08 20:32N 57°34' E 011°35'0 0.0
2017-Jan-08 19:33N 57°34' E 011°35'0 0.0
2017-Jan-08 18:33N 57°34' E 011°35'0 0.0
2017-Jan-08 17:33N 57°34' E 011°35'0 0.0
2017-Jan-08 16:33N 57°34' E 011°35'0 0.0
2017-Jan-08 15:33N 57°34' E 011°35'0 0.0
2017-Jan-08 14:33N 57°34' E 011°35'0 0.0
2017-Jan-08 13:33N 57°34' E 011°35'0 0.0
2017-Jan-08 12:33N 57°34' E 011°35'0 0.0
2017-Jan-08 11:27N 57°34' E 011°35'0 0.0
2017-Jan-08 10:33N 57°34' E 011°35'0 0.0
2017-Jan-08 09:33N 57°34' E 011°35'0 0.1
2017-Jan-08 08:33N 57°34' E 011°35'0 0.0
2017-Jan-08 07:33N 57°34' E 011°35'0 0.0
2017-Jan-08 06:33N 57°34' E 011°35'0 0.0
2017-Jan-08 05:33N 57°34' E 011°35'0 0.1
2017-Jan-08 04:33N 57°34' E 011°35'0 0.1
2017-Jan-08 03:33N 57°33' E 011°35'0 0.0
2017-Jan-08 02:32N 57°33' E 011°35'0 0.0
2017-Jan-08 01:33N 57°33' E 011°35'0 0.0
2017-Jan-08 00:33N 57°33' E 011°35'0 0.0
2017-Jan-07 23:32N 57°34' E 011°35'0 0.0
2017-Jan-07 22:33N 57°34' E 011°35'0 0.1
2017-Jan-07 21:32N 57°34' E 011°35'0 0.0
2017-Jan-07 20:33N 57°34' E 011°35'0 0.1
2017-Jan-07 19:33N 57°34' E 011°35'0 0.1
2017-Jan-07 18:32N 57°34' E 011°35'0 0.0
2017-Jan-07 17:32N 57°34' E 011°35'3 3.3
2017-Jan-07 16:33N 57°36' E 011°39'7 6.6
2017-Jan-07 15:33N 57°41' E 011°47'0 0.1
2017-Jan-07 14:31N 57°41' E 011°47'0 0.0
2017-Jan-07 13:31N 57°41' E 011°47'0 0.0
2017-Jan-07 12:31N 57°41' E 011°47'0 0.0
2017-Jan-07 11:32N 57°41' E 011°47'0 0.0
2017-Jan-07 10:31N 57°41' E 011°47'0 0.0
2017-Jan-07 09:31N 57°41' E 011°47'0 0.0
2017-Jan-07 08:31N 57°41' E 011°47'0 0.0
2017-Jan-07 07:31N 57°41' E 011°47'0 0.0
2017-Jan-07 06:31N 57°41' E 011°47'0 0.0
2017-Jan-07 05:32N 57°41' E 011°47'0 0.0
2017-Jan-07 04:32N 57°41' E 011°47'0 0.0
2017-Jan-07 03:31N 57°41' E 011°47'0 0.0
2017-Jan-07 02:28N 57°41' E 011°47'0 0.0
2017-Jan-07 01:31N 57°41' E 011°47'0 0.0
2017-Jan-07 00:31N 57°41' E 011°47'0 0.0
2017-Jan-06 23:31N 57°41' E 011°47'0 0.0
2017-Jan-06 22:31N 57°41' E 011°47'0 0.0
2017-Jan-06 21:31N 57°41' E 011°47'0 0.0
2017-Jan-06 20:31N 57°41' E 011°47'0 0.0
2017-Jan-06 19:32N 57°41' E 011°47'0 0.0
2017-Jan-06 18:32N 57°41' E 011°47'0 0.0
2017-Jan-06 17:32N 57°41' E 011°47'0 0.0
2017-Jan-06 16:31N 57°41' E 011°47'0 0.0
2017-Jan-06 15:31N 57°41' E 011°47'0 0.0
2017-Jan-06 14:31N 57°41' E 011°47'0 0.0
2017-Jan-06 13:31N 57°41' E 011°47'0 0.0
2017-Jan-06 12:31N 57°41' E 011°47'0 0.0
2017-Jan-06 11:32N 57°41' E 011°47'0 0.0
2017-Jan-06 10:31N 57°41' E 011°47'0 0.0
2017-Jan-06 09:31N 57°41' E 011°47'0 0.2
2017-Jan-06 08:33N 57°41' E 011°47'5 4.8
2017-Jan-06 07:33N 57°37' E 011°41'8 8.1
2017-Jan-06 06:33N 57°40' E 011°26'5 4.6
2017-Jan-06 05:33N 57°43' E 011°20'4 3.7
2017-Jan-06 04:33N 57°45' E 011°15'1010.5
2017-Jan-06 03:33N 57°50' E 010°58'1313.3
2017-Jan-06 02:33N 57°55' E 010°34'  

Dump ship's entire track history